sensor_id;sensor_type;location;lat;lon;timestamp;temperature;humidity
11599;DHT22;5855;48.840;9.188;2022-08-20T00:01:06;21.00;99.90
11599;DHT22;5855;48.840;9.188;2022-08-20T00:03:36;20.80;99.90
11599;DHT22;5855;48.840;9.188;2022-08-20T00:06:07;20.80;99.90
11599;DHT22;5855;48.840;9.188;2022-08-20T00:08:35;20.70;99.90
11599;DHT22;5855;48.840;9.188;2022-08-20T00:11:03;20.60;99.90
11599;DHT22;5855;48.840;9.188;2022-08-20T00:13:34;20.60;99.90
11599;DHT22;5855;48.840;9.188;2022-08-20T00:16:01;20.50;99.90
11599;DHT22;5855;48.840;9.188;2022-08-20T00:18:30;20.40;99.90
11599;DHT22;5855;48.840;9.188;2022-08-20T00:20:57;20.30;99.90
11599;DHT22;5855;48.840;9.188;2022-08-20T00:23:25;20.20;99.90
11599;DHT22;5855;48.840;9.188;2022-08-20T00:25:52;20.30;99.90
11599;DHT22;5855;48.840;9.188;2022-08-20T00:28:19;20.20;99.90
11599;DHT22;5855;48.840;9.188;2022-08-20T00:30:47;20.20;99.90
11599;DHT22;5855;48.840;9.188;2022-08-20T00:33:16;20.10;99.90
11599;DHT22;5855;48.840;9.188;2022-08-20T00:35:47;20.10;99.90
11599;DHT22;5855;48.840;9.188;2022-08-20T00:38:14;20.10;99.90
11599;DHT22;5855;48.840;9.188;2022-08-20T00:40:44;20.00;99.90
11599;DHT22;5855;48.840;9.188;2022-08-20T00:43:27;20.10;99.90
11599;DHT22;5855;48.840;9.188;2022-08-20T00:45:55;20.10;99.90
11599;DHT22;5855;48.840;9.188;2022-08-20T00:48:22;20.10;99.90
11599;DHT22;5855;48.840;9.188;2022-08-20T00:50:53;20.10;99.90
11599;DHT22;5855;48.840;9.188;2022-08-20T00:53:23;20.00;99.90
11599;DHT22;5855;48.840;9.188;2022-08-20T00:55:51;20.00;99.90
11599;DHT22;5855;48.840;9.188;2022-08-20T00:58:18;20.00;99.90
11599;DHT22;5855;48.840;9.188;2022-08-20T01:00:46;20.00;99.90
11599;DHT22;5855;48.840;9.188;2022-08-20T01:03:16;19.90;99.90
11599;DHT22;5855;48.840;9.188;2022-08-20T01:05:46;20.00;99.90
11599;DHT22;5855;48.840;9.188;2022-08-20T01:08:16;20.00;99.90
11599;DHT22;5855;48.840;9.188;2022-08-20T01:10:45;20.00;99.90
11599;DHT22;5855;48.840;9.188;2022-08-20T01:13:17;20.00;99.90
11599;DHT22;5855;48.840;9.188;2022-08-20T01:15:47;20.00;99.90
11599;DHT22;5855;48.840;9.188;2022-08-20T01:18:18;20.00;99.90
11599;DHT22;5855;48.840;9.188;2022-08-20T01:20:48;20.00;99.90
11599;DHT22;5855;48.840;9.188;2022-08-20T01:23:20;20.00;99.90
11599;DHT22;5855;48.840;9.188;2022-08-20T01:25:58;19.90;99.90
11599;DHT22;5855;48.840;9.188;2022-08-20T01:28:31;19.90;99.90
11599;DHT22;5855;48.840;9.188;2022-08-20T01:30:59;19.90;99.90
11599;DHT22;5855;48.840;9.188;2022-08-20T01:33:26;19.90;99.90
11599;DHT22;5855;48.840;9.188;2022-08-20T01:35:53;20.00;99.90
11599;DHT22;5855;48.840;9.188;2022-08-20T01:38:20;20.00;99.90
11599;DHT22;5855;48.840;9.188;2022-08-20T01:41:14;20.10;99.90
11599;DHT22;5855;48.840;9.188;2022-08-20T01:43:47;20.10;99.90
11599;DHT22;5855;48.840;9.188;2022-08-20T01:46:14;20.10;99.90
11599;DHT22;5855;48.840;9.188;2022-08-20T01:48:42;20.00;99.90
11599;DHT22;5855;48.840;9.188;2022-08-20T01:51:13;20.00;99.90
11599;DHT22;5855;48.840;9.188;2022-08-20T01:53:45;20.00;99.90
11599;DHT22;5855;48.840;9.188;2022-08-20T01:56:16;20.00;99.90
11599;DHT22;5855;48.840;9.188;2022-08-20T01:58:46;20.00;99.90
11599;DHT22;5855;48.840;9.188;2022-08-20T02:01:22;20.00;99.90
11599;DHT22;5855;48.840;9.188;2022-08-20T02:03:49;20.10;99.90
11599;DHT22;5855;48.840;9.188;2022-08-20T02:06:17;20.00;99.90
11599;DHT22;5855;48.840;9.188;2022-08-20T02:08:44;20.10;99.90
11599;DHT22;5855;48.840;9.188;2022-08-20T02:11:12;20.10;99.90
11599;DHT22;5855;48.840;9.188;2022-08-20T02:13:39;20.00;99.90
11599;DHT22;5855;48.840;9.188;2022-08-20T02:16:06;19.90;99.90
11599;DHT22;5855;48.840;9.188;2022-08-20T02:18:33;20.00;99.90
11599;DHT22;5855;48.840;9.188;2022-08-20T02:21:01;19.90;99.90
11599;DHT22;5855;48.840;9.188;2022-08-20T02:23:28;19.90;99.90
11599;DHT22;5855;48.840;9.188;2022-08-20T02:25:55;19.90;99.90
11599;DHT22;5855;48.840;9.188;2022-08-20T02:28:23;19.80;99.90
11599;DHT22;5855;48.840;9.188;2022-08-20T02:30:52;19.80;99.90
11599;DHT22;5855;48.840;9.188;2022-08-20T02:33:21;19.70;99.90
11599;DHT22;5855;48.840;9.188;2022-08-20T02:35:49;19.70;99.90
11599;DHT22;5855;48.840;9.188;2022-08-20T02:38:16;19.60;99.90
11599;DHT22;5855;48.840;9.188;2022-08-20T02:40:44;19.50;99.90
11599;DHT22;5855;48.840;9.188;2022-08-20T02:43:14;19.50;99.90
11599;DHT22;5855;48.840;9.188;2022-08-20T02:45:44;19.50;99.90
11599;DHT22;5855;48.840;9.188;2022-08-20T02:48:13;19.60;99.90
11599;DHT22;5855;48.840;9.188;2022-08-20T02:50:46;19.60;99.90
11599;DHT22;5855;48.840;9.188;2022-08-20T02:53:15;19.60;99.90
11599;DHT22;5855;48.840;9.188;2022-08-20T02:55:42;19.70;99.90
11599;DHT22;5855;48.840;9.188;2022-08-20T02:58:10;19.70;99.90
11599;DHT22;5855;48.840;9.188;2022-08-20T03:00:38;19.80;99.90
11599;DHT22;5855;48.840;9.188;2022-08-20T03:03:07;19.80;99.90
11599;DHT22;5855;48.840;9.188;2022-08-20T03:05:34;19.80;99.90
11599;DHT22;5855;48.840;9.188;2022-08-20T03:08:02;19.80;99.90
11599;DHT22;5855;48.840;9.188;2022-08-20T03:10:33;19.90;99.90
11599;DHT22;5855;48.840;9.188;2022-08-20T03:13:00;19.90;99.90
11599;DHT22;5855;48.840;9.188;2022-08-20T03:15:28;19.80;99.90
11599;DHT22;5855;48.840;9.188;2022-08-20T03:17:55;19.90;99.90
11599;DHT22;5855;48.840;9.188;2022-08-20T03:20:24;19.90;99.90
11599;DHT22;5855;48.840;9.188;2022-08-20T03:22:52;19.80;99.90
11599;DHT22;5855;48.840;9.188;2022-08-20T03:25:19;19.80;99.90
11599;DHT22;5855;48.840;9.188;2022-08-20T03:27:46;19.80;99.90
11599;DHT22;5855;48.840;9.188;2022-08-20T03:30:15;19.80;99.90
11599;DHT22;5855;48.840;9.188;2022-08-20T03:32:42;19.70;99.90
11599;DHT22;5855;48.840;9.188;2022-08-20T03:35:11;19.70;99.90
11599;DHT22;5855;48.840;9.188;2022-08-20T03:37:40;19.80;99.90
11599;DHT22;5855;48.840;9.188;2022-08-20T03:40:10;19.70;99.90
11599;DHT22;5855;48.840;9.188;2022-08-20T03:42:38;19.70;99.90
11599;DHT22;5855;48.840;9.188;2022-08-20T03:45:06;19.70;99.90
11599;DHT22;5855;48.840;9.188;2022-08-20T03:47:33;19.70;99.90
11599;DHT22;5855;48.840;9.188;2022-08-20T03:50:03;19.70;99.90
11599;DHT22;5855;48.840;9.188;2022-08-20T03:52:30;19.70;99.90
11599;DHT22;5855;48.840;9.188;2022-08-20T03:54:58;19.70;99.90
11599;DHT22;5855;48.840;9.188;2022-08-20T03:57:25;19.70;99.90
11599;DHT22;5855;48.840;9.188;2022-08-20T03:59:53;19.70;99.90
11599;DHT22;5855;48.840;9.188;2022-08-20T04:02:20;19.60;99.90
11599;DHT22;5855;48.840;9.188;2022-08-20T04:04:47;19.60;99.90
11599;DHT22;5855;48.840;9.188;2022-08-20T04:07:16;19.60;99.90
11599;DHT22;5855;48.840;9.188;2022-08-20T04:09:45;19.70;99.90
11599;DHT22;5855;48.840;9.188;2022-08-20T04:12:14;19.70;99.90
11599;DHT22;5855;48.840;9.188;2022-08-20T04:14:40;19.70;99.90
11599;DHT22;5855;48.840;9.188;2022-08-20T04:17:08;19.70;99.90
11599;DHT22;5855;48.840;9.188;2022-08-20T04:19:37;19.70;99.90
11599;DHT22;5855;48.840;9.188;2022-08-20T04:22:04;19.60;99.90
11599;DHT22;5855;48.840;9.188;2022-08-20T04:24:32;19.70;99.90
11599;DHT22;5855;48.840;9.188;2022-08-20T04:27:00;19.80;99.90
11599;DHT22;5855;48.840;9.188;2022-08-20T04:29:31;19.90;99.90
11599;DHT22;5855;48.840;9.188;2022-08-20T04:31:58;19.90;99.90
11599;DHT22;5855;48.840;9.188;2022-08-20T04:34:26;19.90;99.90
11599;DHT22;5855;48.840;9.188;2022-08-20T04:36:54;19.90;99.90
11599;DHT22;5855;48.840;9.188;2022-08-20T04:39:21;19.80;99.90
11599;DHT22;5855;48.840;9.188;2022-08-20T04:41:48;19.90;99.90
11599;DHT22;5855;48.840;9.188;2022-08-20T04:44:15;19.80;99.90
11599;DHT22;5855;48.840;9.188;2022-08-20T04:46:43;19.80;99.90
11599;DHT22;5855;48.840;9.188;2022-08-20T04:49:10;20.00;99.90
11599;DHT22;5855;48.840;9.188;2022-08-20T04:51:37;20.00;99.90
11599;DHT22;5855;48.840;9.188;2022-08-20T04:54:03;20.10;99.90
11599;DHT22;5855;48.840;9.188;2022-08-20T04:56:34;20.00;99.90
11599;DHT22;5855;48.840;9.188;2022-08-20T04:59:04;20.00;99.90
11599;DHT22;5855;48.840;9.188;2022-08-20T05:01:31;20.00;99.90
11599;DHT22;5855;48.840;9.188;2022-08-20T05:04:00;20.10;99.90
11599;DHT22;5855;48.840;9.188;2022-08-20T05:06:29;20.10;99.90
11599;DHT22;5855;48.840;9.188;2022-08-20T05:08:58;20.10;99.90
11599;DHT22;5855;48.840;9.188;2022-08-20T05:11:26;20.00;99.90
11599;DHT22;5855;48.840;9.188;2022-08-20T05:13:53;20.00;99.90
11599;DHT22;5855;48.840;9.188;2022-08-20T05:16:20;20.00;99.90
11599;DHT22;5855;48.840;9.188;2022-08-20T05:18:48;20.00;99.90
11599;DHT22;5855;48.840;9.188;2022-08-20T05:21:18;20.00;99.90
11599;DHT22;5855;48.840;9.188;2022-08-20T05:23:44;20.00;99.90
11599;DHT22;5855;48.840;9.188;2022-08-20T05:26:12;20.00;99.90
11599;DHT22;5855;48.840;9.188;2022-08-20T05:28:40;20.00;99.90
11599;DHT22;5855;48.840;9.188;2022-08-20T05:31:07;20.00;99.90
11599;DHT22;5855;48.840;9.188;2022-08-20T05:33:35;19.90;99.90
11599;DHT22;5855;48.840;9.188;2022-08-20T05:36:03;19.90;99.90
11599;DHT22;5855;48.840;9.188;2022-08-20T05:38:34;20.00;99.90
11599;DHT22;5855;48.840;9.188;2022-08-20T05:41:03;20.00;99.90
11599;DHT22;5855;48.840;9.188;2022-08-20T05:43:30;20.10;99.90
11599;DHT22;5855;48.840;9.188;2022-08-20T05:45:58;20.10;99.90
11599;DHT22;5855;48.840;9.188;2022-08-20T05:48:26;20.10;99.90
11599;DHT22;5855;48.840;9.188;2022-08-20T05:50:53;20.10;99.90
11599;DHT22;5855;48.840;9.188;2022-08-20T05:53:22;20.10;99.90
11599;DHT22;5855;48.840;9.188;2022-08-20T05:55:51;20.20;99.90
11599;DHT22;5855;48.840;9.188;2022-08-20T05:58:20;20.20;99.90
11599;DHT22;5855;48.840;9.188;2022-08-20T06:00:47;20.30;99.90
11599;DHT22;5855;48.840;9.188;2022-08-20T06:03:14;20.40;99.90
11599;DHT22;5855;48.840;9.188;2022-08-20T06:05:59;20.50;99.90
11599;DHT22;5855;48.840;9.188;2022-08-20T06:08:26;20.60;99.90
11599;DHT22;5855;48.840;9.188;2022-08-20T06:10:55;20.80;99.90
11599;DHT22;5855;48.840;9.188;2022-08-20T06:13:22;21.00;99.90
11599;DHT22;5855;48.840;9.188;2022-08-20T06:15:49;20.90;99.90
11599;DHT22;5855;48.840;9.188;2022-08-20T06:18:16;20.90;99.90
11599;DHT22;5855;48.840;9.188;2022-08-20T06:20:43;21.00;99.90
11599;DHT22;5855;48.840;9.188;2022-08-20T06:23:11;21.00;99.90
11599;DHT22;5855;48.840;9.188;2022-08-20T06:25:38;21.00;99.90
11599;DHT22;5855;48.840;9.188;2022-08-20T06:28:06;21.10;99.90
11599;DHT22;5855;48.840;9.188;2022-08-20T06:30:34;21.30;99.90
11599;DHT22;5855;48.840;9.188;2022-08-20T06:33:01;21.30;99.90
11599;DHT22;5855;48.840;9.188;2022-08-20T06:35:28;21.20;99.90
11599;DHT22;5855;48.840;9.188;2022-08-20T06:37:55;21.20;99.90
11599;DHT22;5855;48.840;9.188;2022-08-20T06:40:27;21.20;99.90
11599;DHT22;5855;48.840;9.188;2022-08-20T06:42:54;21.20;99.90
11599;DHT22;5855;48.840;9.188;2022-08-20T06:45:24;21.40;99.90
11599;DHT22;5855;48.840;9.188;2022-08-20T06:47:53;21.30;99.90
11599;DHT22;5855;48.840;9.188;2022-08-20T06:50:24;21.30;99.90
11599;DHT22;5855;48.840;9.188;2022-08-20T06:52:50;21.40;99.90
11599;DHT22;5855;48.840;9.188;2022-08-20T06:55:17;21.50;99.90
11599;DHT22;5855;48.840;9.188;2022-08-20T06:57:44;21.50;99.90
11599;DHT22;5855;48.840;9.188;2022-08-20T07:00:16;21.40;99.90
11599;DHT22;5855;48.840;9.188;2022-08-20T07:02:46;21.40;99.90
11599;DHT22;5855;48.840;9.188;2022-08-20T07:05:13;21.40;99.90
11599;DHT22;5855;48.840;9.188;2022-08-20T07:07:44;21.40;99.90
11599;DHT22;5855;48.840;9.188;2022-08-20T07:10:13;21.40;99.90
11599;DHT22;5855;48.840;9.188;2022-08-20T07:12:41;21.40;99.90
11599;DHT22;5855;48.840;9.188;2022-08-20T07:15:10;21.40;99.90
11599;DHT22;5855;48.840;9.188;2022-08-20T07:17:37;21.40;99.90
11599;DHT22;5855;48.840;9.188;2022-08-20T07:20:07;21.40;99.90
11599;DHT22;5855;48.840;9.188;2022-08-20T07:22:35;21.50;99.90
11599;DHT22;5855;48.840;9.188;2022-08-20T07:25:02;21.60;99.90
11599;DHT22;5855;48.840;9.188;2022-08-20T07:27:29;21.60;99.90
11599;DHT22;5855;48.840;9.188;2022-08-20T07:29:57;21.70;99.90
11599;DHT22;5855;48.840;9.188;2022-08-20T07:32:41;21.80;99.90
11599;DHT22;5855;48.840;9.188;2022-08-20T07:35:11;22.10;99.90
11599;DHT22;5855;48.840;9.188;2022-08-20T07:37:40;22.20;99.90
11599;DHT22;5855;48.840;9.188;2022-08-20T07:40:10;22.20;99.90
11599;DHT22;5855;48.840;9.188;2022-08-20T07:42:38;22.40;99.90
11599;DHT22;5855;48.840;9.188;2022-08-20T07:45:06;22.50;99.90
11599;DHT22;5855;48.840;9.188;2022-08-20T07:47:35;22.60;99.90
11599;DHT22;5855;48.840;9.188;2022-08-20T07:50:03;22.90;99.90
11599;DHT22;5855;48.840;9.188;2022-08-20T07:52:31;23.10;99.90
11599;DHT22;5855;48.840;9.188;2022-08-20T07:54:59;23.40;99.90
11599;DHT22;5855;48.840;9.188;2022-08-20T07:57:26;23.60;99.90
11599;DHT22;5855;48.840;9.188;2022-08-20T07:59:53;23.90;99.90
11599;DHT22;5855;48.840;9.188;2022-08-20T08:02:25;24.10;99.90
11599;DHT22;5855;48.840;9.188;2022-08-20T08:04:52;24.40;99.90
11599;DHT22;5855;48.840;9.188;2022-08-20T08:07:20;24.50;99.90
11599;DHT22;5855;48.840;9.188;2022-08-20T08:09:49;24.80;99.90
11599;DHT22;5855;48.840;9.188;2022-08-20T08:12:16;25.20;99.90
11599;DHT22;5855;48.840;9.188;2022-08-20T08:14:44;25.50;99.90
11599;DHT22;5855;48.840;9.188;2022-08-20T08:17:12;25.40;99.90
11599;DHT22;5855;48.840;9.188;2022-08-20T08:19:49;25.60;99.90
11599;DHT22;5855;48.840;9.188;2022-08-20T08:22:17;25.40;99.90
11599;DHT22;5855;48.840;9.188;2022-08-20T08:24:45;25.40;99.90
11599;DHT22;5855;48.840;9.188;2022-08-20T08:27:14;25.30;99.90
11599;DHT22;5855;48.840;9.188;2022-08-20T08:29:42;25.40;99.90
11599;DHT22;5855;48.840;9.188;2022-08-20T08:32:10;25.10;99.90
11599;DHT22;5855;48.840;9.188;2022-08-20T08:34:37;25.10;99.90
11599;DHT22;5855;48.840;9.188;2022-08-20T08:37:04;25.30;99.90
11599;DHT22;5855;48.840;9.188;2022-08-20T08:39:32;25.40;99.90
11599;DHT22;5855;48.840;9.188;2022-08-20T08:42:00;25.60;99.90
11599;DHT22;5855;48.840;9.188;2022-08-20T08:44:33;25.70;99.90
11599;DHT22;5855;48.840;9.188;2022-08-20T08:47:04;25.60;99.90
11599;DHT22;5855;48.840;9.188;2022-08-20T08:49:44;25.50;99.90
11599;DHT22;5855;48.840;9.188;2022-08-20T08:52:15;25.60;99.90
11599;DHT22;5855;48.840;9.188;2022-08-20T08:54:47;25.60;99.90
11599;DHT22;5855;48.840;9.188;2022-08-20T08:57:14;25.60;99.90
11599;DHT22;5855;48.840;9.188;2022-08-20T08:59:48;25.50;99.90
11599;DHT22;5855;48.840;9.188;2022-08-20T09:02:19;25.50;99.90
11599;DHT22;5855;48.840;9.188;2022-08-20T09:04:47;25.50;99.90
11599;DHT22;5855;48.840;9.188;2022-08-20T09:07:16;25.60;99.90
11599;DHT22;5855;48.840;9.188;2022-08-20T09:09:44;25.90;99.90
11599;DHT22;5855;48.840;9.188;2022-08-20T09:12:14;26.20;99.90
11599;DHT22;5855;48.840;9.188;2022-08-20T09:14:46;26.50;99.90
11599;DHT22;5855;48.840;9.188;2022-08-20T09:17:13;26.80;99.90
11599;DHT22;5855;48.840;9.188;2022-08-20T09:19:40;26.70;99.90
11599;DHT22;5855;48.840;9.188;2022-08-20T09:22:08;27.10;99.90
11599;DHT22;5855;48.840;9.188;2022-08-20T09:24:35;27.40;99.90
11599;DHT22;5855;48.840;9.188;2022-08-20T09:27:02;27.60;99.90
11599;DHT22;5855;48.840;9.188;2022-08-20T09:29:29;27.60;99.90
11599;DHT22;5855;48.840;9.188;2022-08-20T09:32:05;27.40;99.90
11599;DHT22;5855;48.840;9.188;2022-08-20T09:34:35;27.00;99.90
11599;DHT22;5855;48.840;9.188;2022-08-20T09:37:02;26.60;99.90
11599;DHT22;5855;48.840;9.188;2022-08-20T09:39:29;26.60;99.90
11599;DHT22;5855;48.840;9.188;2022-08-20T09:42:05;26.40;99.90
11599;DHT22;5855;48.840;9.188;2022-08-20T09:44:33;26.30;99.90
11599;DHT22;5855;48.840;9.188;2022-08-20T09:47:00;26.20;99.90
11599;DHT22;5855;48.840;9.188;2022-08-20T09:49:28;26.30;99.90
11599;DHT22;5855;48.840;9.188;2022-08-20T09:51:56;26.40;99.90
11599;DHT22;5855;48.840;9.188;2022-08-20T09:54:25;26.40;99.90
11599;DHT22;5855;48.840;9.188;2022-08-20T09:56:54;26.50;99.90
11599;DHT22;5855;48.840;9.188;2022-08-20T09:59:21;26.50;99.90
11599;DHT22;5855;48.840;9.188;2022-08-20T10:01:48;26.40;99.90
11599;DHT22;5855;48.840;9.188;2022-08-20T10:04:15;26.20;99.90
11599;DHT22;5855;48.840;9.188;2022-08-20T10:06:44;26.00;99.90
11599;DHT22;5855;48.840;9.188;2022-08-20T10:09:11;26.10;99.90
11599;DHT22;5855;48.840;9.188;2022-08-20T10:11:38;26.00;99.90
11599;DHT22;5855;48.840;9.188;2022-08-20T10:14:05;26.50;99.90
11599;DHT22;5855;48.840;9.188;2022-08-20T10:16:33;26.60;99.90
11599;DHT22;5855;48.840;9.188;2022-08-20T10:19:01;27.20;99.90
11599;DHT22;5855;48.840;9.188;2022-08-20T10:21:28;27.60;99.90
11599;DHT22;5855;48.840;9.188;2022-08-20T10:23:57;27.50;99.90
11599;DHT22;5855;48.840;9.188;2022-08-20T10:26:24;27.20;99.90
11599;DHT22;5855;48.840;9.188;2022-08-20T10:28:51;26.90;99.90
11599;DHT22;5855;48.840;9.188;2022-08-20T10:31:17;26.60;99.90
11599;DHT22;5855;48.840;9.188;2022-08-20T10:33:44;26.00;99.90
11599;DHT22;5855;48.840;9.188;2022-08-20T10:36:13;25.80;99.90
11599;DHT22;5855;48.840;9.188;2022-08-20T10:38:40;25.60;99.90
11599;DHT22;5855;48.840;9.188;2022-08-20T10:41:09;25.70;99.90
11599;DHT22;5855;48.840;9.188;2022-08-20T10:43:36;26.20;99.90
11599;DHT22;5855;48.840;9.188;2022-08-20T10:46:03;26.50;99.90
11599;DHT22;5855;48.840;9.188;2022-08-20T10:48:30;26.90;99.90
11599;DHT22;5855;48.840;9.188;2022-08-20T10:50:57;27.20;99.90
11599;DHT22;5855;48.840;9.188;2022-08-20T10:53:24;27.60;99.90
11599;DHT22;5855;48.840;9.188;2022-08-20T10:55:51;28.10;99.90
11599;DHT22;5855;48.840;9.188;2022-08-20T10:58:20;27.60;99.90
11599;DHT22;5855;48.840;9.188;2022-08-20T11:00:46;28.60;99.90
11599;DHT22;5855;48.840;9.188;2022-08-20T11:03:13;28.70;99.90
11599;DHT22;5855;48.840;9.188;2022-08-20T11:05:40;29.00;99.90
11599;DHT22;5855;48.840;9.188;2022-08-20T11:08:07;29.60;99.30
11599;DHT22;5855;48.840;9.188;2022-08-20T11:10:35;28.80;99.00
11599;DHT22;5855;48.840;9.188;2022-08-20T11:13:04;28.20;99.50
11599;DHT22;5855;48.840;9.188;2022-08-20T11:15:34;27.90;99.90
11599;DHT22;5855;48.840;9.188;2022-08-20T11:18:02;27.50;99.90
11599;DHT22;5855;48.840;9.188;2022-08-20T11:20:29;26.90;99.90
11599;DHT22;5855;48.840;9.188;2022-08-20T11:22:57;26.40;99.90
11599;DHT22;5855;48.840;9.188;2022-08-20T11:25:24;26.60;99.90
11599;DHT22;5855;48.840;9.188;2022-08-20T11:27:53;26.40;99.90
11599;DHT22;5855;48.840;9.188;2022-08-20T11:30:22;26.50;99.90
11599;DHT22;5855;48.840;9.188;2022-08-20T11:32:51;26.20;99.90
11599;DHT22;5855;48.840;9.188;2022-08-20T11:35:18;26.20;99.90
11599;DHT22;5855;48.840;9.188;2022-08-20T11:37:46;26.10;99.90
11599;DHT22;5855;48.840;9.188;2022-08-20T11:40:13;26.20;99.90
11599;DHT22;5855;48.840;9.188;2022-08-20T11:42:40;26.30;99.90
11599;DHT22;5855;48.840;9.188;2022-08-20T11:45:07;26.60;99.90
11599;DHT22;5855;48.840;9.188;2022-08-20T11:47:34;26.70;99.90
11599;DHT22;5855;48.840;9.188;2022-08-20T11:50:06;26.80;99.90
11599;DHT22;5855;48.840;9.188;2022-08-20T11:52:34;26.80;99.90
11599;DHT22;5855;48.840;9.188;2022-08-20T11:55:01;26.50;99.90
11599;DHT22;5855;48.840;9.188;2022-08-20T11:57:30;26.00;99.90
11599;DHT22;5855;48.840;9.188;2022-08-20T11:59:59;25.70;99.90
11599;DHT22;5855;48.840;9.188;2022-08-20T12:02:27;25.40;99.90
11599;DHT22;5855;48.840;9.188;2022-08-20T12:04:54;25.50;99.90
11599;DHT22;5855;48.840;9.188;2022-08-20T12:07:24;25.40;99.90
11599;DHT22;5855;48.840;9.188;2022-08-20T12:09:51;25.40;99.90
11599;DHT22;5855;48.840;9.188;2022-08-20T12:12:20;25.30;99.90
11599;DHT22;5855;48.840;9.188;2022-08-20T12:14:48;25.10;99.90
11599;DHT22;5855;48.840;9.188;2022-08-20T12:17:17;25.10;99.90
11599;DHT22;5855;48.840;9.188;2022-08-20T12:19:48;25.10;99.90
11599;DHT22;5855;48.840;9.188;2022-08-20T12:22:16;25.30;99.90
11599;DHT22;5855;48.840;9.188;2022-08-20T12:24:44;25.60;99.90
11599;DHT22;5855;48.840;9.188;2022-08-20T12:27:12;25.70;99.90
11599;DHT22;5855;48.840;9.188;2022-08-20T12:29:41;25.80;99.90
11599;DHT22;5855;48.840;9.188;2022-08-20T12:32:08;26.00;99.90
11599;DHT22;5855;48.840;9.188;2022-08-20T12:34:36;26.10;99.90
11599;DHT22;5855;48.840;9.188;2022-08-20T12:37:07;26.10;99.90
11599;DHT22;5855;48.840;9.188;2022-08-20T12:39:37;26.30;99.90
11599;DHT22;5855;48.840;9.188;2022-08-20T12:42:05;26.30;99.90
11599;DHT22;5855;48.840;9.188;2022-08-20T12:44:33;26.30;99.90
11599;DHT22;5855;48.840;9.188;2022-08-20T12:47:08;26.20;99.90
11599;DHT22;5855;48.840;9.188;2022-08-20T12:49:36;26.10;99.90
11599;DHT22;5855;48.840;9.188;2022-08-20T12:52:03;26.00;99.90
11599;DHT22;5855;48.840;9.188;2022-08-20T12:54:30;25.60;99.90
11599;DHT22;5855;48.840;9.188;2022-08-20T12:56:57;25.00;99.90
11599;DHT22;5855;48.840;9.188;2022-08-20T12:59:25;23.90;99.90
11599;DHT22;5855;48.840;9.188;2022-08-20T13:01:53;22.80;99.90
11599;DHT22;5855;48.840;9.188;2022-08-20T13:04:20;22.20;99.90
11599;DHT22;5855;48.840;9.188;2022-08-20T13:06:47;21.90;99.90
11599;DHT22;5855;48.840;9.188;2022-08-20T13:09:15;22.00;99.90
11599;DHT22;5855;48.840;9.188;2022-08-20T13:11:42;22.10;99.90
11599;DHT22;5855;48.840;9.188;2022-08-20T13:14:09;22.30;99.90
11599;DHT22;5855;48.840;9.188;2022-08-20T13:16:37;22.60;99.90
11599;DHT22;5855;48.840;9.188;2022-08-20T13:19:04;23.00;99.90
11599;DHT22;5855;48.840;9.188;2022-08-20T13:21:31;23.80;99.90
11599;DHT22;5855;48.840;9.188;2022-08-20T13:23:58;25.00;99.90
11599;DHT22;5855;48.840;9.188;2022-08-20T13:26:25;26.30;99.90
11599;DHT22;5855;48.840;9.188;2022-08-20T13:28:51;27.60;99.90
11599;DHT22;5855;48.840;9.188;2022-08-20T13:31:18;28.90;99.90
11599;DHT22;5855;48.840;9.188;2022-08-20T13:33:47;29.60;99.90
11599;DHT22;5855;48.840;9.188;2022-08-20T13:36:13;29.60;99.90
11599;DHT22;5855;48.840;9.188;2022-08-20T13:38:40;29.60;99.90
11599;DHT22;5855;48.840;9.188;2022-08-20T13:41:07;30.00;99.90
11599;DHT22;5855;48.840;9.188;2022-08-20T13:43:34;30.00;99.90
11599;DHT22;5855;48.840;9.188;2022-08-20T13:46:01;29.90;99.90
11599;DHT22;5855;48.840;9.188;2022-08-20T13:48:27;29.90;99.90
11599;DHT22;5855;48.840;9.188;2022-08-20T13:50:56;30.10;99.90
11599;DHT22;5855;48.840;9.188;2022-08-20T13:53:23;30.60;99.90
11599;DHT22;5855;48.840;9.188;2022-08-20T13:55:50;31.60;99.90
11599;DHT22;5855;48.840;9.188;2022-08-20T13:58:16;32.50;99.90
11599;DHT22;5855;48.840;9.188;2022-08-20T14:00:44;33.80;99.90
11599;DHT22;5855;48.840;9.188;2022-08-20T14:03:11;34.10;99.90
11599;DHT22;5855;48.840;9.188;2022-08-20T14:05:38;34.10;98.70
11599;DHT22;5855;48.840;9.188;2022-08-20T14:08:09;34.60;95.70
11599;DHT22;5855;48.840;9.188;2022-08-20T14:10:37;35.30;96.70
11599;DHT22;5855;48.840;9.188;2022-08-20T14:13:05;34.90;95.60
11599;DHT22;5855;48.840;9.188;2022-08-20T14:15:32;34.10;95.70
11599;DHT22;5855;48.840;9.188;2022-08-20T14:17:59;33.20;95.80
11599;DHT22;5855;48.840;9.188;2022-08-20T14:20:29;32.20;97.40
11599;DHT22;5855;48.840;9.188;2022-08-20T14:22:56;30.70;99.40
11599;DHT22;5855;48.840;9.188;2022-08-20T14:25:25;29.50;99.90
11599;DHT22;5855;48.840;9.188;2022-08-20T14:27:53;29.40;99.90
11599;DHT22;5855;48.840;9.188;2022-08-20T14:30:21;30.00;99.90
11599;DHT22;5855;48.840;9.188;2022-08-20T14:32:48;29.30;99.90
11599;DHT22;5855;48.840;9.188;2022-08-20T14:35:15;28.80;99.90
11599;DHT22;5855;48.840;9.188;2022-08-20T14:37:45;28.30;99.90
11599;DHT22;5855;48.840;9.188;2022-08-20T14:40:14;28.00;99.90
11599;DHT22;5855;48.840;9.188;2022-08-20T14:42:43;27.90;99.90
11599;DHT22;5855;48.840;9.188;2022-08-20T14:45:12;29.40;99.90
11599;DHT22;5855;48.840;9.188;2022-08-20T14:47:41;30.00;99.90
11599;DHT22;5855;48.840;9.188;2022-08-20T14:50:11;31.30;99.20
11599;DHT22;5855;48.840;9.188;2022-08-20T14:52:38;32.10;97.90
11599;DHT22;5855;48.840;9.188;2022-08-20T14:55:08;33.20;96.40
11599;DHT22;5855;48.840;9.188;2022-08-20T14:57:37;34.50;93.30
11599;DHT22;5855;48.840;9.188;2022-08-20T15:00:08;34.30;92.30
11599;DHT22;5855;48.840;9.188;2022-08-20T15:02:37;33.70;92.40
11599;DHT22;5855;48.840;9.188;2022-08-20T15:05:05;33.90;92.80
11599;DHT22;5855;48.840;9.188;2022-08-20T15:07:35;35.60;91.00
11599;DHT22;5855;48.840;9.188;2022-08-20T15:10:05;37.30;86.40
11599;DHT22;5855;48.840;9.188;2022-08-20T15:12:33;38.70;80.20
11599;DHT22;5855;48.840;9.188;2022-08-20T15:15:00;40.40;71.60
11599;DHT22;5855;48.840;9.188;2022-08-20T15:17:29;41.40;62.80
11599;DHT22;5855;48.840;9.188;2022-08-20T15:19:56;41.50;59.60
11599;DHT22;5855;48.840;9.188;2022-08-20T15:22:23;41.50;55.80
11599;DHT22;5855;48.840;9.188;2022-08-20T15:24:50;41.80;54.70
11599;DHT22;5855;48.840;9.188;2022-08-20T15:27:19;42.30;53.20
11599;DHT22;5855;48.840;9.188;2022-08-20T15:29:46;42.60;52.10
11599;DHT22;5855;48.840;9.188;2022-08-20T15:32:13;42.30;49.60
11599;DHT22;5855;48.840;9.188;2022-08-20T15:34:41;42.60;49.50
11599;DHT22;5855;48.840;9.188;2022-08-20T15:37:10;43.00;48.70
11599;DHT22;5855;48.840;9.188;2022-08-20T15:39:38;42.90;48.60
11599;DHT22;5855;48.840;9.188;2022-08-20T15:42:05;43.30;47.40
11599;DHT22;5855;48.840;9.188;2022-08-20T15:44:33;43.80;46.90
11599;DHT22;5855;48.840;9.188;2022-08-20T15:47:22;43.10;46.60
11599;DHT22;5855;48.840;9.188;2022-08-20T15:49:54;41.40;49.00
11599;DHT22;5855;48.840;9.188;2022-08-20T15:52:23;41.40;50.20